Time;durP1;ratioP1;P1;durP2;ratioP2;P2;SDS_P1;SDS_P2;PMS_P1;PMS_P2;Temp;Humidity;BMP_temperature;BMP_pressure;BME280_temperature;BME280_humidity;BME280_pressure;Samples;Min_cycle;Max_cycle;Signal;HPM_P1;HPM_P2
2024/03/10 00:00:20;;;;;;;6.63;3.60;;;7.10;99.90;;;;;;5034338;28;20264;-75
2024/03/10 00:02:46;;;;;;;3.67;2.90;;;7.10;99.90;;;;;;5034864;28;20209;-75
2024/03/10 00:05:15;;;;;;;4.95;3.08;;;7.10;99.90;;;;;;5034868;28;20234;-74
2024/03/10 00:07:41;;;;;;;3.83;2.70;;;7.10;99.90;;;;;;5034823;28;20627;-75
2024/03/10 00:10:10;;;;;;;5.10;3.30;;;7.10;99.90;;;;;;5034323;28;20203;-75
2024/03/10 00:12:37;;;;;;;4.10;3.13;;;7.10;99.90;;;;;;5034446;28;20206;-74
2024/03/10 00:15:04;;;;;;;4.55;2.75;;;7.20;99.90;;;;;;5034360;28;20226;-75
2024/03/10 00:17:31;;;;;;;3.25;2.85;;;7.20;99.90;;;;;;5034195;28;20640;-75
2024/03/10 00:19:58;;;;;;;4.53;2.88;;;7.30;99.90;;;;;;5033218;28;20624;-75
2024/03/10 00:22:26;;;;;;;4.07;2.92;;;7.30;99.90;;;;;;5034200;28;20215;-75
2024/03/10 00:24:53;;;;;;;3.88;3.08;;;7.30;99.90;;;;;;5034037;28;20220;-75
2024/03/10 00:27:19;;;;;;;5.20;3.22;;;7.40;99.90;;;;;;5034006;28;20210;-75
2024/03/10 00:29:46;;;;;;;3.60;3.30;;;7.40;99.90;;;;;;5033929;28;20583;-76
2024/03/10 00:32:13;;;;;;;3.80;3.20;;;7.40;99.90;;;;;;5034135;28;20230;-75
2024/03/10 00:34:42;;;;;;;3.72;2.55;;;7.40;99.90;;;;;;5033690;28;20222;-75
2024/03/10 00:37:08;;;;;;;3.05;2.65;;;7.40;99.90;;;;;;5034159;28;20205;-75
2024/03/10 00:39:36;;;;;;;6.47;3.25;;;7.50;99.90;;;;;;5033444;28;20227;-75
2024/03/10 00:42:05;;;;;;;4.85;3.33;;;7.50;99.90;;;;;;5033944;28;20211;-75
2024/03/10 00:44:32;;;;;;;4.57;3.10;;;7.50;99.90;;;;;;5033748;28;20221;-75
2024/03/10 00:46:59;;;;;;;3.00;2.60;;;7.60;99.90;;;;;;5025763;28;20213;-75
2024/03/10 00:49:26;;;;;;;3.50;2.85;;;7.60;99.90;;;;;;5033534;28;20207;-75
2024/03/10 00:51:52;;;;;;;4.15;3.22;;;7.50;99.90;;;;;;5033360;28;20207;-75
2024/03/10 00:54:19;;;;;;;6.47;3.50;;;7.50;99.90;;;;;;5033438;28;20275;-75
2024/03/10 00:56:47;;;;;;;3.58;2.83;;;7.50;99.90;;;;;;5033524;28;20216;-74
2024/03/10 00:59:16;;;;;;;5.45;3.20;;;7.50;99.90;;;;;;5033461;28;20713;-74
2024/03/10 01:01:42;;;;;;;5.05;2.80;;;7.40;99.90;;;;;;5032310;28;20207;-75
2024/03/10 01:04:09;;;;;;;3.50;2.90;;;7.40;99.90;;;;;;5033259;28;20340;-75
2024/03/10 01:06:36;;;;;;;3.50;3.10;;;7.40;99.90;;;;;;5033304;28;20225;-75
2024/03/10 01:09:04;;;;;;;4.63;2.75;;;7.30;99.90;;;;;;5033412;28;20257;-75
2024/03/10 01:11:34;;;;;;;3.35;3.05;;;7.30;99.90;;;;;;5033042;28;20209;-75
2024/03/10 01:14:02;;;;;;;3.55;3.03;;;7.30;99.90;;;;;;5033228;28;20785;-75
2024/03/10 01:16:29;;;;;;;5.85;3.17;;;7.40;99.90;;;;;;5033541;28;20217;-75
2024/03/10 01:18:56;;;;;;;3.45;2.95;;;7.40;99.90;;;;;;5032930;28;20777;-75
2024/03/10 01:21:23;;;;;;;2.95;2.58;;;7.40;99.90;;;;;;5032633;28;20218;-75
2024/03/10 01:23:51;;;;;;;3.40;3.03;;;7.40;99.90;;;;;;5032696;28;20203;-75
2024/03/10 01:26:18;;;;;;;3.20;2.65;;;7.50;99.90;;;;;;5033104;28;20210;-75
2024/03/10 01:28:45;;;;;;;4.55;3.60;;;7.50;99.90;;;;;;5032270;28;20199;-75
2024/03/10 01:31:13;;;;;;;3.22;2.92;;;7.50;99.90;;;;;;5032495;28;20211;-75
2024/03/10 01:33:40;;;;;;;4.15;3.30;;;7.50;99.90;;;;;;5032410;28;20235;-75
2024/03/10 01:36:07;;;;;;;6.40;4.10;;;7.50;99.90;;;;;;5033008;28;20203;-75
2024/03/10 01:38:34;;;;;;;4.82;3.45;;;7.50;99.90;;;;;;5032450;28;20833;-75
2024/03/10 01:41:01;;;;;;;4.30;3.00;;;7.50;99.90;;;;;;5032005;28;20215;-75
2024/03/10 01:43:27;;;;;;;5.03;3.58;;;7.50;99.90;;;;;;5032388;28;20291;-75
2024/03/10 01:46:06;;;;;;;3.58;2.65;;;7.50;99.90;;;;;;5032306;28;20239;-75
2024/03/10 01:48:35;;;;;;;4.30;3.38;;;7.60;99.90;;;;;;5032421;28;20217;-75
2024/03/10 01:51:01;;;;;;;4.05;2.97;;;7.60;99.90;;;;;;5024064;28;20202;-75
2024/03/10 01:53:31;;;;;;;4.13;3.17;;;7.60;99.90;;;;;;5032090;28;20698;-74
2024/03/10 01:55:59;;;;;;;8.98;4.25;;;7.60;99.90;;;;;;5032182;28;20230;-74
2024/03/10 01:58:26;;;;;;;5.20;3.53;;;7.60;99.90;;;;;;5032214;28;20206;-74
2024/03/10 02:00:53;;;;;;;5.20;3.85;;;7.60;99.90;;;;;;5031650;28;20278;-74
2024/03/10 02:03:20;;;;;;;8.63;3.38;;;7.60;99.90;;;;;;5032228;28;20217;-74
2024/03/10 02:05:49;;;;;;;3.40;2.75;;;7.60;99.90;;;;;;5031642;28;20234;-74
2024/03/10 02:08:16;;;;;;;5.78;3.72;;;7.60;99.90;;;;;;5032212;28;20594;-74
2024/03/10 02:10:46;;;;;;;3.88;3.22;;;7.60;99.90;;;;;;5031177;28;20200;-74
2024/03/10 02:13:13;;;;;;;4.85;3.58;;;7.60;99.90;;;;;;5032065;28;20208;-74
2024/03/10 02:15:40;;;;;;;3.67;3.10;;;7.50;99.90;;;;;;5031792;28;20230;-74
2024/03/10 02:18:06;;;;;;;4.65;3.00;;;7.50;99.90;;;;;;5031869;28;20212;-74
2024/03/10 02:20:33;;;;;;;4.07;2.95;;;7.50;99.90;;;;;;5030999;28;20219;-74
2024/03/10 02:23:01;;;;;;;2.83;2.50;;;7.50;99.90;;;;;;5023793;28;20209;-74
2024/03/10 02:25:35;;;;;;;3.38;2.80;;;7.50;99.90;;;;;;5031477;28;20236;-74
2024/03/10 02:28:09;;;;;;;3.88;3.00;;;7.50;99.90;;;;;;5024165;28;20258;-74
2024/03/10 02:30:42;;;;;;;2.90;2.60;;;7.50;99.90;;;;;;5030874;28;20207;-74
2024/03/10 02:47:14;;;;;;;3.00;2.70;;;7.40;99.90;;;;;;5031523;28;20214;-74
2024/03/10 02:49:41;;;;;;;3.17;2.38;;;7.30;99.90;;;;;;5030820;28;20207;-74
2024/03/10 02:52:08;;;;;;;3.45;2.88;;;7.30;99.90;;;;;;5031092;28;20211;-74
2024/03/10 02:54:35;;;;;;;3.20;2.80;;;7.20;99.90;;;;;;5030993;28;20235;-74
2024/03/10 02:57:02;;;;;;;4.25;2.97;;;7.20;99.90;;;;;;5031150;28;20209;-74
2024/03/10 02:59:30;;;;;;;6.97;2.85;;;7.10;99.90;;;;;;5030859;28;20232;-74
2024/03/10 03:01:57;;;;;;;4.07;3.13;;;7.00;99.90;;;;;;5030733;28;20585;-74
2024/03/10 03:04:26;;;;;;;3.20;2.83;;;7.00;99.90;;;;;;5031080;28;20242;-74
2024/03/10 03:06:53;;;;;;;3.33;2.72;;;7.00;99.90;;;;;;5030758;28;20289;-74
2024/03/10 03:09:20;;;;;;;6.20;2.80;;;6.90;99.90;;;;;;5030736;28;20586;-74
2024/03/10 03:11:47;;;;;;;4.82;3.80;;;6.80;99.90;;;;;;5030166;28;20238;-74
2024/03/10 03:14:14;;;;;;;4.45;3.15;;;6.70;99.90;;;;;;5031017;28;20582;-74
2024/03/10 03:16:42;;;;;;;4.00;3.05;;;6.70;99.90;;;;;;5030596;28;20594;-75
2024/03/10 03:19:12;;;;;;;4.85;3.00;;;6.60;99.90;;;;;;5030515;28;20248;-74
2024/03/10 03:21:39;;;;;;;4.38;3.47;;;6.60;99.90;;;;;;5030305;28;20665;-74
2024/03/10 03:24:08;;;;;;;3.80;3.00;;;6.50;99.90;;;;;;5030922;28;20226;-74
2024/03/10 03:26:34;;;;;;;2.88;2.40;;;6.40;99.90;;;;;;5030021;28;20216;-74
2024/03/10 03:29:02;;;;;;;4.18;2.78;;;6.40;99.90;;;;;;5030556;28;20206;-74
2024/03/10 03:31:28;;;;;;;4.57;3.22;;;6.40;99.90;;;;;;5030737;28;20206;-74
2024/03/10 03:33:56;;;;;;;5.80;2.67;;;6.30;99.90;;;;;;5030399;28;20589;-74
2024/03/10 03:36:23;;;;;;;3.35;2.42;;;6.30;99.90;;;;;;5030817;28;20213;-74
2024/03/10 03:38:50;;;;;;;5.63;3.35;;;6.20;99.90;;;;;;5030087;28;20206;-74
2024/03/10 03:41:17;;;;;;;4.82;2.80;;;6.20;99.90;;;;;;5030312;28;20234;-74
2024/03/10 03:43:44;;;;;;;3.65;2.40;;;6.20;99.90;;;;;;5030308;28;20248;-74
2024/03/10 03:46:11;;;;;;;2.13;1.85;;;6.20;99.90;;;;;;5030847;28;20222;-74
2024/03/10 03:48:38;;;;;;;2.35;2.13;;;6.20;99.90;;;;;;5030316;28;20213;-74
2024/03/10 03:51:06;;;;;;;2.83;2.53;;;6.20;99.90;;;;;;5030090;28;20206;-73
2024/03/10 03:53:34;;;;;;;4.57;2.97;;;6.20;99.90;;;;;;5030586;28;20206;-74
2024/03/10 03:56:00;;;;;;;3.88;2.60;;;6.20;99.90;;;;;;5022449;28;20234;-74
2024/03/10 03:58:27;;;;;;;3.22;2.72;;;6.20;99.90;;;;;;5030723;28;20210;-74
2024/03/10 04:00:54;;;;;;;2.50;2.10;;;6.20;99.90;;;;;;5029545;28;20352;-74
2024/03/10 04:03:20;;;;;;;2.83;2.00;;;6.10;99.90;;;;;;5030590;28;20289;-74
2024/03/10 04:05:47;;;;;;;2.47;2.10;;;6.10;99.90;;;;;;5030113;28;20234;-74
2024/03/10 04:08:15;;;;;;;3.05;2.75;;;6.00;99.90;;;;;;5030693;28;20267;-74
2024/03/10 04:10:42;;;;;;;5.57;3.22;;;6.00;99.90;;;;;;5029558;28;20230;-74
2024/03/10 04:13:09;;;;;;;2.45;2.25;;;6.00;99.90;;;;;;5030419;28;20202;-74
2024/03/10 04:15:36;;;;;;;2.95;2.28;;;5.90;99.90;;;;;;5030239;28;20230;-74
2024/03/10 04:18:04;;;;;;;4.10;3.20;;;5.80;99.90;;;;;;5030160;28;20202;-74
2024/03/10 04:20:31;;;;;;;3.13;2.30;;;5.80;99.90;;;;;;5029665;28;20309;-74
2024/03/10 04:22:58;;;;;;;4.65;2.60;;;5.80;99.90;;;;;;5029938;28;20591;-74
2024/03/10 04:25:26;;;;;;;5.80;3.08;;;5.80;99.90;;;;;;5030195;28;20230;-73
2024/03/10 04:27:53;;;;;;;3.92;2.60;;;5.70;99.90;;;;;;5029927;28;20202;-74
2024/03/10 04:30:22;;;;;;;3.50;2.60;;;5.70;99.90;;;;;;5022230;28;20236;-73
2024/03/10 04:32:48;;;;;;;3.72;2.88;;;5.60;99.90;;;;;;5029852;28;20206;-73
2024/03/10 04:35:19;;;;;;;2.65;2.45;;;5.60;99.90;;;;;;5029788;28;20285;-74
2024/03/10 04:37:46;;;;;;;2.72;2.40;;;5.50;99.90;;;;;;5031042;28;20212;-73
2024/03/10 04:40:12;;;;;;;3.63;2.60;;;5.50;99.90;;;;;;5033147;28;20224;-74
2024/03/10 04:42:40;;;;;;;4.65;2.90;;;5.50;99.90;;;;;;5033634;28;20597;-73
2024/03/10 04:45:08;;;;;;;4.00;2.60;;;5.50;99.90;;;;;;5026537;28;20218;-74
2024/03/10 04:47:35;;;;;;;2.45;2.25;;;5.40;99.90;;;;;;5033489;28;20228;-73
2024/03/10 04:50:02;;;;;;;4.10;2.35;;;5.40;99.90;;;;;;5025369;28;20198;-74
2024/03/10 04:52:28;;;;;;;3.50;2.38;;;5.40;99.90;;;;;;5033495;28;20850;-73
2024/03/10 04:54:55;;;;;;;3.88;2.30;;;5.30;99.90;;;;;;5032795;28;20229;-74
2024/03/10 04:57:24;;;;;;;2.67;2.28;;;5.30;99.90;;;;;;5032931;28;20587;-74
2024/03/10 04:59:52;;;;;;;3.75;2.70;;;5.30;99.90;;;;;;5032265;28;20218;-74
2024/03/10 05:02:19;;;;;;;2.70;2.20;;;5.30;99.90;;;;;;5032887;28;20225;-74
2024/03/10 05:04:48;;;;;;;2.63;1.73;;;5.30;99.90;;;;;;5032857;28;20226;-74
2024/03/10 05:07:15;;;;;;;1.98;1.77;;;5.30;99.90;;;;;;5033084;28;20212;-74
2024/03/10 05:09:42;;;;;;;2.78;2.28;;;5.40;99.90;;;;;;5032840;28;20210;-74
2024/03/10 05:12:12;;;;;;;1.83;1.73;;;5.30;99.90;;;;;;5032750;28;20232;-74
2024/03/10 05:14:39;;;;;;;2.30;2.03;;;5.30;99.90;;;;;;5032931;28;20773;-74
2024/03/10 05:17:07;;;;;;;3.72;2.30;;;5.40;99.90;;;;;;5032795;28;20198;-74
2024/03/10 05:19:33;;;;;;;1.70;1.60;;;5.40;99.90;;;;;;5032669;28;20222;-74
2024/03/10 05:22:02;;;;;;;2.88;2.00;;;5.40;99.90;;;;;;5024327;28;20225;-74
2024/03/10 05:24:29;;;;;;;2.63;1.90;;;5.40;99.90;;;;;;5032903;28;20646;-74
2024/03/10 05:26:56;;;;;;;2.08;1.90;;;5.40;99.90;;;;;;5032495;28;20213;-73
2024/03/10 05:29:22;;;;;;;1.85;1.65;;;5.40;99.90;;;;;;5032634;28;20614;-75
2024/03/10 05:31:49;;;;;;;2.13;1.85;;;5.30;99.90;;;;;;5032154;28;20292;-74
2024/03/10 05:34:19;;;;;;;1.83;1.60;;;5.30;99.90;;;;;;5032700;28;20222;-74
2024/03/10 05:36:46;;;;;;;3.72;2.38;;;5.30;99.90;;;;;;5032548;28;20213;-74
2024/03/10 05:39:14;;;;;;;1.90;1.80;;;5.30;99.90;;;;;;5032150;28;20205;-74
2024/03/10 05:41:41;;;;;;;2.08;1.85;;;5.30;99.90;;;;;;5032267;28;20245;-74
2024/03/10 05:44:09;;;;;;;2.00;1.80;;;5.20;99.90;;;;;;5032215;28;20930;-74
2024/03/10 05:46:35;;;;;;;2.70;1.80;;;5.20;99.90;;;;;;5032433;28;20206;-74
2024/03/10 05:49:03;;;;;;;1.92;1.60;;;5.20;99.90;;;;;;5031298;28;20205;-74
2024/03/10 05:51:31;;;;;;;1.70;1.60;;;5.20;99.90;;;;;;5032069;28;20205;-74
2024/03/10 05:53:58;;;;;;;2.20;1.90;;;5.20;99.90;;;;;;5030382;28;20380;-75
2024/03/10 05:56:25;;;;;;;1.65;1.45;;;5.20;99.90;;;;;;5027193;28;20217;-74
2024/03/10 05:58:51;;;;;;;4.00;2.30;;;5.20;99.90;;;;;;5031640;28;20220;-74
2024/03/10 06:01:23;;;;;;;3.03;1.80;;;5.20;99.90;;;;;;5031965;28;20229;-74
2024/03/10 06:03:51;;;;;;;3.22;2.00;;;5.20;99.90;;;;;;5031772;28;20694;-74
2024/03/10 06:06:17;;;;;;;3.08;1.65;;;5.20;99.90;;;;;;5032137;28;20210;-74
2024/03/10 06:08:46;;;;;;;1.58;1.48;;;5.20;99.90;;;;;;5031838;28;20206;-74
2024/03/10 06:11:12;;;;;;;1.85;1.25;;;5.20;99.90;;;;;;5031577;28;20213;-74
2024/03/10 06:13:39;;;;;;;2.00;1.90;;;5.20;99.90;;;;;;5031765;28;20572;-74
2024/03/10 06:16:06;;;;;;;3.25;1.80;;;5.20;99.90;;;;;;5031665;28;20206;-74
2024/03/10 06:25:22;;;;;;;2.67;2.05;;;5.10;99.90;;;;;;5031979;28;20232;-74
2024/03/10 06:26:51;;;;;;;2.25;2.00;;;5.10;99.90;;;;;;5025534;28;20217;-74
2024/03/10 06:29:18;;;;;;;2.35;2.10;;;5.10;99.90;;;;;;5031326;28;20241;-74
2024/03/10 06:31:45;;;;;;;1.70;1.60;;;5.10;99.90;;;;;;5031340;28;20735;-74
2024/03/10 06:34:11;;;;;;;2.00;1.80;;;5.20;99.90;;;;;;5031186;28;20715;-74
2024/03/10 06:36:38;;;;;;;2.20;1.90;;;5.30;99.90;;;;;;5031453;28;20623;-74
2024/03/10 06:39:08;;;;;;;2.35;2.05;;;5.30;99.90;;;;;;5030981;28;20210;-75
2024/03/10 06:41:34;;;;;;;3.00;1.77;;;5.30;99.90;;;;;;5031067;28;20227;-75
2024/03/10 06:44:02;;;;;;;1.70;1.60;;;5.30;99.90;;;;;;5031009;28;20226;-75
2024/03/10 06:46:29;;;;;;;2.25;2.05;;;5.40;99.90;;;;;;5031365;28;20205;-75
2024/03/10 06:48:56;;;;;;;3.65;2.08;;;5.40;99.90;;;;;;5024620;28;20208;-74
2024/03/10 06:51:23;;;;;;;2.13;1.60;;;5.40;99.90;;;;;;5024616;28;20205;-74
2024/03/10 06:53:49;;;;;;;1.42;1.20;;;5.50;99.90;;;;;;5023444;28;20207;-74
2024/03/10 06:56:18;;;;;;;1.10;1.00;;;5.50;99.90;;;;;;5030786;28;20221;-73
2024/03/10 06:58:51;;;;;;;1.48;1.30;;;5.50;99.90;;;;;;5030594;28;20627;-73
2024/03/10 07:01:19;;;;;;;1.92;1.75;;;5.60;99.90;;;;;;5029263;28;20319;-73
2024/03/10 07:03:47;;;;;;;1.90;1.63;;;5.60;99.90;;;;;;5030571;28;20630;-74
2024/03/10 07:06:15;;;;;;;2.85;1.77;;;5.60;99.90;;;;;;5028635;28;20214;-74
2024/03/10 07:08:42;;;;;;;1.80;1.67;;;5.60;99.90;;;;;;5030963;28;20202;-74
2024/03/10 07:11:10;;;;;;;1.73;1.63;;;5.70;99.90;;;;;;5029931;28;20289;-74
2024/03/10 07:13:38;;;;;;;2.00;1.50;;;5.70;99.90;;;;;;5030314;28;20290;-74
2024/03/10 07:16:06;;;;;;;2.60;1.90;;;5.70;99.90;;;;;;5026026;28;20252;-74
2024/03/10 07:18:33;;;;;;;1.60;1.50;;;5.70;99.90;;;;;;5027153;28;20206;-74
2024/03/10 07:21:00;;;;;;;2.47;1.95;;;5.70;99.90;;;;;;5021102;28;20226;-74
2024/03/10 07:23:26;;;;;;;2.40;2.10;;;5.70;99.90;;;;;;5030671;28;20699;-74
2024/03/10 07:25:53;;;;;;;2.33;1.55;;;5.80;99.90;;;;;;5030335;28;20599;-74
2024/03/10 07:28:20;;;;;;;2.08;1.80;;;5.80;99.90;;;;;;5030010;28;20206;-74
2024/03/10 07:30:48;;;;;;;2.58;1.88;;;5.90;99.90;;;;;;5030109;28;20293;-74
2024/03/10 07:33:15;;;;;;;2.05;1.85;;;6.00;99.90;;;;;;5027118;28;20213;-74
2024/03/10 07:35:41;;;;;;;2.38;1.67;;;6.10;99.90;;;;;;5025048;28;20243;-74
2024/03/10 07:38:08;;;;;;;2.75;2.00;;;6.20;99.90;;;;;;5027380;28;20244;-74
2024/03/10 07:40:35;;;;;;;2.35;1.58;;;6.30;99.90;;;;;;5029660;28;20209;-74
2024/03/10 07:43:03;;;;;;;2.85;1.85;;;6.40;99.90;;;;;;5029882;28;20210;-74
2024/03/10 07:45:29;;;;;;;2.50;1.92;;;6.60;99.90;;;;;;5030013;28;20225;-74
2024/03/10 07:47:58;;;;;;;2.38;2.05;;;6.70;99.90;;;;;;5028522;28;20671;-74
2024/03/10 07:50:25;;;;;;;2.00;1.60;;;6.90;99.90;;;;;;5025582;28;20261;-74
2024/03/10 07:52:51;;;;;;;2.78;2.40;;;7.10;99.90;;;;;;5031864;28;20457;-73
2024/03/10 07:55:18;;;;;;;3.17;2.40;;;7.40;99.90;;;;;;5030166;28;20238;-73
2024/03/10 07:57:45;;;;;;;2.17;1.98;;;7.70;99.90;;;;;;5029985;28;20693;-74
2024/03/10 08:00:16;;;;;;;2.00;1.90;;;8.20;99.90;;;;;;5029584;28;20209;-73
2024/03/10 08:02:43;;;;;;;3.33;2.78;;;8.90;99.90;;;;;;5025260;28;20221;-73
2024/03/10 08:05:12;;;;;;;2.13;1.88;;;9.60;99.90;;;;;;5029795;28;20760;-73
2024/03/10 08:07:41;;;;;;;1.90;1.80;;;9.90;99.90;;;;;;5030407;28;20205;-73
2024/03/10 08:10:09;;;;;;;5.00;2.25;;;10.10;99.90;;;;;;5029504;28;20249;-74
2024/03/10 08:12:36;;;;;;;2.70;2.15;;;10.20;99.90;;;;;;5032728;28;20208;-73
2024/03/10 08:15:03;;;;;;;3.08;1.90;;;10.30;99.90;;;;;;5033874;28;20668;-73
2024/03/10 08:17:30;;;;;;;2.83;2.58;;;10.40;99.90;;;;;;5034009;28;20202;-73
2024/03/10 08:19:57;;;;;;;2.67;2.35;;;10.40;99.90;;;;;;5026292;28;20759;-73
2024/03/10 08:22:25;;;;;;;2.20;2.00;;;10.40;99.90;;;;;;5033141;28;20220;-73
2024/03/10 08:24:53;;;;;;;2.45;2.25;;;10.30;99.90;;;;;;5030948;28;20604;-74
2024/03/10 08:27:22;;;;;;;3.08;2.35;;;10.30;99.90;;;;;;5030618;28;20263;-74
2024/03/10 08:29:49;;;;;;;2.05;1.85;;;10.20;99.90;;;;;;5027389;28;20206;-73
2024/03/10 08:32:16;;;;;;;2.15;1.75;;;10.20;99.90;;;;;;5033806;28;20214;-74
2024/03/10 08:34:43;;;;;;;2.88;2.28;;;10.30;99.90;;;;;;5028612;28;20226;-73
2024/03/10 08:37:10;;;;;;;2.47;1.98;;;10.40;99.90;;;;;;5032749;28;20202;-73
2024/03/10 08:39:39;;;;;;;3.05;2.17;;;10.40;99.90;;;;;;5033235;28;20260;-73
2024/03/10 08:42:06;;;;;;;2.97;2.15;;;10.40;99.90;;;;;;5032262;28;20241;-72
2024/03/10 08:44:33;;;;;;;2.20;2.00;;;10.40;99.90;;;;;;5033555;28;20226;-73
2024/03/10 08:47:00;;;;;;;3.10;2.17;;;10.30;99.90;;;;;;5033800;28;20285;-73
2024/03/10 08:49:27;;;;;;;2.92;2.28;;;10.20;99.90;;;;;;5024168;28;20627;-72
2024/03/10 08:51:54;;;;;;;2.20;1.92;;;10.20;99.90;;;;;;5033098;28;20229;-73
2024/03/10 08:54:20;;;;;;;1.60;1.50;;;10.20;99.90;;;;;;5032848;28;20262;-72
2024/03/10 08:56:48;;;;;;;1.95;1.58;;;10.20;99.90;;;;;;5033802;28;20198;-72
2024/03/10 08:59:15;;;;;;;2.47;1.48;;;10.10;99.90;;;;;;5027316;28;20232;-73
2024/03/10 09:01:42;;;;;;;2.95;1.90;;;10.20;99.90;;;;;;5027832;28;20224;-73
2024/03/10 09:04:10;;;;;;;2.75;1.92;;;10.20;99.90;;;;;;5028383;28;20229;-73
2024/03/10 09:06:37;;;;;;;2.80;2.08;;;10.30;99.90;;;;;;5029153;28;20301;-73
2024/03/10 09:09:05;;;;;;;2.20;1.90;;;10.40;99.90;;;;;;5032409;28;20202;-73
2024/03/10 09:11:32;;;;;;;2.13;2.03;;;10.60;99.90;;;;;;5032826;28;20224;-72
2024/03/10 09:14:00;;;;;;;2.42;2.22;;;10.90;99.90;;;;;;5031918;28;20202;-73
2024/03/10 09:16:27;;;;;;;4.30;2.30;;;11.40;99.90;;;;;;5031566;28;20318;-73
2024/03/10 09:19:19;;;;;;;2.35;2.15;;;12.00;99.90;;;;;;5032310;28;20582;-73
2024/03/10 09:21:58;;;;;;;2.63;2.10;;;12.70;99.90;;;;;;4970202;28;20223;-74
2024/03/10 09:24:31;;;;;;;2.75;2.10;;;13.50;99.90;;;;;;5028135;28;20587;-75
2024/03/10 09:30:08;;;;;;;2.10;1.90;;;14.10;98.60;;;;;;5032000;28;20459;-75
2024/03/10 09:32:54;;;;;;;2.40;2.20;;;14.30;99.60;;;;;;5026007;28;20210;-74
2024/03/10 09:35:35;;;;;;;1.90;1.80;;;14.40;98.80;;;;;;5028896;28;20527;-74
2024/03/10 09:38:18;;;;;;;2.70;2.00;;;14.50;98.80;;;;;;5025019;28;20460;-74
2024/03/10 09:40:46;;;;;;;2.40;2.20;;;14.40;98.70;;;;;;5032489;28;20526;-75
2024/03/10 09:43:18;;;;;;;2.40;2.00;;;14.10;98.30;;;;;;5031897;28;20487;-74
2024/03/10 09:45:47;;;;;;;5.37;3.53;;;13.80;98.70;;;;;;5032084;28;20491;-75
2024/03/10 09:48:15;;;;;;;4.40;3.40;;;13.60;99.00;;;;;;5035979;28;20474;-74
2024/03/10 09:50:46;;;;;;;3.50;2.73;;;13.30;99.10;;;;;;5029903;28;20471;-74
2024/03/10 09:53:23;;;;;;;4.00;3.07;;;13.10;99.70;;;;;;5030772;28;20480;-74
2024/03/10 09:55:52;;;;;;;2.90;2.17;;;13.00;99.30;;;;;;5027049;28;20990;-74
2024/03/10 09:58:24;;;;;;;3.70;2.27;;;12.80;99.60;;;;;;5026600;28;20515;-74
2024/03/10 10:00:54;;;;;;;3.30;2.27;;;12.70;99.60;;;;;;5024854;28;20468;-74
2024/03/10 10:03:22;;;;;;;2.07;1.60;;;12.60;99.70;;;;;;5024792;28;20484;-74
2024/03/10 10:05:52;;;;;;;2.43;2.23;;;12.60;99.90;;;;;;5024586;28;20521;-75
2024/03/10 10:08:19;;;;;;;2.60;2.27;;;12.50;99.90;;;;;;5025650;28;20465;-74
2024/03/10 10:10:49;;;;;;;2.70;2.07;;;12.50;99.90;;;;;;5030924;28;20468;-74
2024/03/10 10:13:22;;;;;;;3.40;1.83;;;12.40;99.90;;;;;;5030888;28;20542;-74
2024/03/10 10:15:50;;;;;;;2.43;2.23;;;12.40;99.90;;;;;;5031170;28;20480;-74
2024/03/10 10:18:19;;;;;;;2.60;2.20;;;12.40;99.90;;;;;;5028761;28;20484;-75
2024/03/10 10:20:47;;;;;;;1.60;1.50;;;12.40;99.80;;;;;;5030570;28;20522;-74
2024/03/10 10:23:15;;;;;;;2.10;1.90;;;12.40;99.90;;;;;;5030832;28;20569;-75
2024/03/10 10:25:45;;;;;;;2.45;2.25;;;12.50;99.90;;;;;;5027807;28;20499;-74
2024/03/10 10:31:49;;;;;;;1.90;1.80;;;12.60;99.90;;;;;;5025531;28;21068;-75
2024/03/10 10:34:58;;;;;;;2.20;2.00;;;12.60;99.90;;;;;;5024094;28;20480;-75
2024/03/10 10:40:54;;;;;;;1.60;1.50;;;12.50;99.90;;;;;;5010704;28;20461;-76
2024/03/10 10:43:39;;;;;;;1.80;1.70;;;12.40;99.90;;;;;;5030720;28;20546;-76
2024/03/10 10:46:29;;;;;;;3.43;2.07;;;12.50;99.90;;;;;;5018655;28;20459;-76
2024/03/10 10:49:36;;;;;;;2.33;2.10;;;12.50;99.90;;;;;;5031064;28;20492;-76
2024/03/10 10:52:37;;;;;;;2.13;1.93;;;12.50;99.60;;;;;;5022902;28;20468;-76
2024/03/10 10:55:07;;;;;;;1.93;1.70;;;12.50;99.50;;;;;;5022378;28;20480;-75
2024/03/10 10:57:34;;;;;;;2.23;1.60;;;12.70;99.90;;;;;;5025375;28;20463;-76
2024/03/10 11:00:13;;;;;;;1.93;1.60;;;12.90;99.40;;;;;;5027465;28;20517;-76
2024/03/10 11:02:42;;;;;;;2.33;2.13;;;13.00;99.10;;;;;;5028537;28;20487;-76
2024/03/10 11:05:09;;;;;;;1.13;1.03;;;13.00;98.80;;;;;;5029375;28;20490;-75
2024/03/10 11:07:45;;;;;;;1.80;1.70;;;12.80;99.90;;;;;;5013612;28;20460;-76
2024/03/10 11:10:42;;;;;;;2.10;1.70;;;12.90;99.60;;;;;;5029162;28;20452;-75
2024/03/10 11:13:11;;;;;;;1.87;1.40;;;13.10;99.20;;;;;;5024293;28;20467;-75
2024/03/10 11:15:39;;;;;;;2.47;1.60;;;13.20;99.40;;;;;;5026553;28;20488;-76
2024/03/10 11:18:29;;;;;;;2.03;1.53;;;13.30;99.30;;;;;;5029148;28;20465;-75
2024/03/10 11:20:57;;;;;;;2.57;2.23;;;13.30;99.30;;;;;;5037889;28;20464;-75
2024/03/10 11:23:36;;;;;;;2.30;1.43;;;13.30;98.90;;;;;;5039473;28;20484;-75
2024/03/10 11:26:06;;;;;;;3.17;1.77;;;13.50;99.30;;;;;;5020629;28;20476;-75
2024/03/10 11:28:50;;;;;;;2.87;1.83;;;13.60;99.30;;;;;;5031192;28;20494;-75
2024/03/10 11:31:20;;;;;;;2.07;1.40;;;13.50;98.50;;;;;;5025166;28;20464;-76
2024/03/10 11:33:47;;;;;;;1.60;1.13;;;13.30;98.30;;;;;;5028371;28;20979;-75
2024/03/10 11:36:13;;;;;;;2.70;1.93;;;13.20;98.70;;;;;;5030813;28;20860;-76
2024/03/10 11:38:42;;;;;;;1.80;1.63;;;13.10;98.70;;;;;;5029761;28;20853;-75
2024/03/10 11:41:10;;;;;;;1.80;1.50;;;13.00;99.50;;;;;;5030186;28;20460;-76
2024/03/10 11:43:38;;;;;;;2.73;2.03;;;13.00;99.10;;;;;;5030091;28;20484;-75
2024/03/10 11:46:18;;;;;;;2.43;1.63;;;12.90;99.60;;;;;;5030743;28;20457;-76
2024/03/10 11:48:46;;;;;;;1.93;1.70;;;12.80;99.60;;;;;;5033685;28;20464;-75
2024/03/10 11:51:13;;;;;;;2.00;1.80;;;12.70;99.10;;;;;;5034005;28;20950;-75
2024/03/10 11:53:41;;;;;;;2.70;1.73;;;12.70;99.20;;;;;;5033823;28;20880;-76
2024/03/10 11:56:08;;;;;;;2.03;1.60;;;12.60;99.40;;;;;;5034503;28;20460;-75
2024/03/10 11:58:35;;;;;;;2.10;1.90;;;12.70;99.70;;;;;;5033898;28;20514;-76
2024/03/10 12:01:05;;;;;;;1.20;1.10;;;12.80;99.80;;;;;;5033761;28;20464;-76
2024/03/10 12:03:34;;;;;;;2.40;1.83;;;13.10;99.50;;;;;;5033590;28;20563;-75
2024/03/10 12:06:01;;;;;;;1.93;1.70;;;13.30;99.40;;;;;;5024739;28;20476;-76
2024/03/10 12:08:28;;;;;;;3.57;2.00;;;13.40;99.20;;;;;;5034000;28;20456;-75
2024/03/10 12:11:00;;;;;;;1.77;1.60;;;13.50;99.60;;;;;;5031492;28;20479;-75
2024/03/10 12:13:27;;;;;;;1.83;1.60;;;13.80;99.70;;;;;;5033443;28;20456;-76
2024/03/10 12:15:58;;;;;;;2.17;1.63;;;14.00;98.90;;;;;;5031819;28;20476;-75
2024/03/10 12:18:25;;;;;;;2.53;1.83;;;14.10;98.70;;;;;;5034072;28;20487;-75
2024/03/10 12:20:53;;;;;;;1.83;1.47;;;14.00;99.20;;;;;;5033253;28;20468;-75
2024/03/10 12:23:23;;;;;;;2.53;1.80;;;13.90;99.10;;;;;;5037002;28;21013;-75
2024/03/10 12:25:51;;;;;;;1.73;1.57;;;13.70;98.90;;;;;;5033539;28;20476;-75
2024/03/10 12:28:20;;;;;;;2.80;1.87;;;13.40;98.60;;;;;;5032120;28;20456;-75
2024/03/10 12:30:47;;;;;;;2.00;1.53;;;13.20;98.80;;;;;;5032876;28;21278;-75
2024/03/10 12:33:15;;;;;;;2.40;1.67;;;13.10;99.60;;;;;;5030890;28;20492;-76
2024/03/10 12:35:42;;;;;;;1.73;1.63;;;13.00;99.40;;;;;;5033327;28;20480;-76
2024/03/10 12:38:09;;;;;;;1.73;1.60;;;12.90;99.20;;;;;;5032233;28;20836;-75
2024/03/10 12:40:36;;;;;;;1.70;1.60;;;12.80;99.40;;;;;;5032710;28;20840;-76
2024/03/10 12:43:03;;;;;;;2.10;1.60;;;12.80;99.40;;;;;;5033488;28;20512;-76
2024/03/10 12:45:33;;;;;;;2.00;1.80;;;12.80;99.90;;;;;;5033684;28;20484;-76
2024/03/10 12:47:59;;;;;;;1.90;1.70;;;12.90;99.90;;;;;;5033346;28;20960;-75
2024/03/10 12:50:26;;;;;;;1.60;1.50;;;12.90;99.80;;;;;;5033233;28;20464;-75
2024/03/10 12:52:53;;;;;;;1.60;1.50;;;13.00;99.70;;;;;;5032644;28;20469;-76
2024/03/10 12:55:20;;;;;;;1.50;1.40;;;13.10;99.90;;;;;;5033258;28;20571;-76
2024/03/10 12:57:47;;;;;;;2.27;1.63;;;13.10;99.70;;;;;;5032107;28;20552;-76
2024/03/10 13:00:27;;;;;;;4.20;1.80;;;13.10;99.80;;;;;;5032914;28;20868;-76
2024/03/10 13:02:56;;;;;;;2.87;1.93;;;13.10;99.70;;;;;;5033021;28;20484;-76
2024/03/10 13:05:22;;;;;;;2.57;1.73;;;13.00;99.20;;;;;;5033678;28;20472;-75
2024/03/10 13:07:49;;;;;;;2.30;1.57;;;13.00;99.40;;;;;;5032685;28;20838;-76
2024/03/10 13:10:16;;;;;;;2.33;2.00;;;13.00;99.60;;;;;;5032740;28;20464;-76
2024/03/10 13:12:43;;;;;;;3.67;2.07;;;12.90;99.70;;;;;;5032734;28;20831;-76
2024/03/10 13:15:11;;;;;;;2.20;2.00;;;12.70;99.70;;;;;;5033019;28;20480;-76
2024/03/10 13:17:38;;;;;;;2.67;2.00;;;12.70;99.90;;;;;;5032822;28;20514;-76
2024/03/10 13:20:11;;;;;;;2.70;2.13;;;12.60;99.90;;;;;;5026915;28;20468;-76
2024/03/10 13:22:38;;;;;;;2.03;1.90;;;12.50;99.90;;;;;;5030913;28;20221;-76
2024/03/10 13:25:05;;;;;;;1.93;1.80;;;12.50;99.90;;;;;;5028200;28;20484;-76
2024/03/10 13:27:33;;;;;;;2.07;1.90;;;12.50;99.90;;;;;;5031830;28;20491;-76
2024/03/10 13:30:01;;;;;;;1.55;1.42;;;12.30;99.90;;;;;;5023575;28;20493;-76